createdAt,value
2024-02-18T00:02:04.737Z,8.97
2024-02-18T00:04:51.552Z,7.57
2024-02-18T00:07:38.064Z,7.93
2024-02-18T00:10:24.385Z,8.70
2024-02-18T00:13:10.836Z,8.30
2024-02-18T00:15:57.593Z,8.23
2024-02-18T00:18:44.561Z,8.67
2024-02-18T00:21:31.053Z,8.80
2024-02-18T00:24:17.936Z,7.83
2024-02-18T00:27:04.809Z,8.23
2024-02-18T00:29:51.253Z,8.57
2024-02-18T00:32:37.919Z,7.40
2024-02-18T00:35:24.344Z,8.83
2024-02-18T00:38:11.062Z,7.93
2024-02-18T00:40:58.088Z,9.20
2024-02-18T00:43:44.702Z,8.07
2024-02-18T00:46:42.122Z,9.03
2024-02-18T00:49:35.683Z,7.07
2024-02-18T00:52:23.050Z,8.07
2024-02-18T00:55:09.968Z,8.13
2024-02-18T00:57:56.853Z,7.27
2024-02-18T01:00:43.520Z,8.83
2024-02-18T01:03:30.005Z,8.00
2024-02-18T01:06:16.648Z,7.53
2024-02-18T01:09:03.706Z,7.60
2024-02-18T01:11:51.960Z,8.27
2024-02-18T01:14:38.491Z,7.73
2024-02-18T01:17:24.879Z,7.60
2024-02-18T01:20:11.554Z,7.87
2024-02-18T01:22:58.104Z,7.53
2024-02-18T01:25:44.590Z,7.13
2024-02-18T01:28:31.050Z,7.97
2024-02-18T01:31:17.416Z,8.37
2024-02-18T01:34:04.155Z,8.17
2024-02-18T01:36:50.572Z,8.37
2024-02-18T01:39:37.141Z,7.53
2024-02-18T01:42:23.694Z,7.33
2024-02-18T01:45:13.453Z,7.67
2024-02-18T01:48:01.570Z,6.83
2024-02-18T01:50:48.371Z,8.30
2024-02-18T01:53:36.237Z,7.67
2024-02-18T01:56:23.936Z,7.33
2024-02-18T01:59:10.917Z,7.47
2024-02-18T02:01:58.202Z,8.33
2024-02-18T02:04:46.223Z,8.10
2024-02-18T02:07:33.003Z,7.43
2024-02-18T02:10:20.191Z,7.80
2024-02-18T02:13:07.156Z,7.43
2024-02-18T02:15:53.827Z,8.27
2024-02-18T02:18:40.321Z,9.03
2024-02-18T02:21:27.422Z,7.80
2024-02-18T02:24:13.778Z,7.60
2024-02-18T02:27:04.567Z,8.80
2024-02-18T02:29:52.396Z,8.07
2024-02-18T02:32:39.289Z,9.83
2024-02-18T02:35:29.193Z,8.00
2024-02-18T02:38:15.716Z,9.50
2024-02-18T02:41:03.947Z,8.67
2024-02-18T02:43:50.094Z,8.93
2024-02-18T02:46:36.598Z,8.40
2024-02-18T02:49:23.095Z,8.63
2024-02-18T02:52:09.603Z,9.17
2024-02-18T02:54:55.988Z,8.10
2024-02-18T02:57:42.718Z,8.30
2024-02-18T03:00:29.565Z,8.23
2024-02-18T03:03:17.593Z,8.80
2024-02-18T03:06:04.411Z,8.87
2024-02-18T03:08:50.859Z,7.10
2024-02-18T03:11:37.156Z,7.83
2024-02-18T03:14:23.791Z,7.80
2024-02-18T03:17:10.152Z,7.80
2024-02-18T03:19:57.499Z,7.53
2024-02-18T03:22:44.287Z,7.83
2024-02-18T03:25:30.673Z,8.10
2024-02-18T03:28:17.147Z,8.00
2024-02-18T03:31:03.975Z,7.47
2024-02-18T03:33:50.813Z,7.67
2024-02-18T03:36:37.477Z,6.80
2024-02-18T03:39:23.953Z,7.07
2024-02-18T03:42:10.399Z,7.83
2024-02-18T03:44:57.471Z,7.83
2024-02-18T03:47:47.705Z,7.10
2024-02-18T03:50:34.157Z,7.23
2024-02-18T03:53:20.499Z,8.33
2024-02-18T03:56:09.787Z,7.10
2024-02-18T03:58:57.965Z,6.70
2024-02-18T04:01:44.487Z,7.13
2024-02-18T04:04:31.108Z,7.27
2024-02-18T04:07:17.471Z,6.73
2024-02-18T04:10:05.262Z,6.37
2024-02-18T04:12:51.991Z,6.97
2024-02-18T04:15:38.498Z,6.90
2024-02-18T04:18:25.249Z,6.93
2024-02-18T04:21:11.752Z,6.47
2024-02-18T04:23:58.248Z,6.73
2024-02-18T04:26:44.620Z,5.60
2024-02-18T04:29:30.973Z,6.97
2024-02-18T04:32:17.571Z,6.37
2024-02-18T04:35:04.829Z,6.27
2024-02-18T04:37:51.389Z,5.83
2024-02-18T04:40:38.188Z,5.23
2024-02-18T04:43:24.753Z,5.83
2024-02-18T04:46:11.293Z,6.50
2024-02-18T04:48:57.658Z,6.30
2024-02-18T04:51:44.191Z,6.00
2024-02-18T04:54:30.614Z,6.03
2024-02-18T04:57:17.498Z,6.30
2024-02-18T05:00:06.415Z,6.37
2024-02-18T05:02:53.054Z,6.13
2024-02-18T05:05:39.493Z,5.90
2024-02-18T05:08:25.850Z,5.80
2024-02-18T05:11:12.016Z,6.30
2024-02-18T05:14:01.104Z,6.47
2024-02-18T05:16:47.729Z,6.47
2024-02-18T05:19:34.150Z,6.17
2024-02-18T05:22:20.375Z,5.70
2024-02-18T05:25:07.455Z,6.27
2024-02-18T05:27:53.622Z,5.83
2024-02-18T05:30:40.323Z,6.13
2024-02-18T05:33:26.714Z,6.37
2024-02-18T05:36:13.117Z,6.33
2024-02-18T05:38:59.344Z,6.20
2024-02-18T05:41:45.800Z,6.20
2024-02-18T05:44:32.389Z,6.77
2024-02-18T05:47:18.708Z,6.47
2024-02-18T05:50:05.828Z,6.73
2024-02-18T05:52:52.292Z,6.53
2024-02-18T05:55:38.585Z,6.93
2024-02-18T05:58:25.033Z,6.60
2024-02-18T06:01:11.661Z,6.10
2024-02-18T06:03:58.415Z,7.17
2024-02-18T06:06:44.896Z,7.00
2024-02-18T06:09:31.532Z,7.13
2024-02-18T06:12:18.673Z,6.70
2024-02-18T06:15:06.440Z,7.00
2024-02-18T06:17:58.136Z,6.23
2024-02-18T06:20:46.296Z,7.20
2024-02-18T06:23:32.685Z,7.13
2024-02-18T06:26:18.968Z,6.53
2024-02-18T06:29:05.219Z,6.47
2024-02-18T06:31:53.470Z,7.00
2024-02-18T06:34:40.399Z,6.30
2024-02-18T06:37:26.746Z,6.70
2024-02-18T06:40:13.417Z,7.43
2024-02-18T06:43:00.099Z,6.30
2024-02-18T06:45:46.893Z,5.97
2024-02-18T06:48:33.463Z,5.63
2024-02-18T06:51:20.047Z,6.37
2024-02-18T06:54:06.642Z,5.80
2024-02-18T06:56:53.071Z,5.30
2024-02-18T06:59:39.606Z,4.93
2024-02-18T07:02:26.130Z,5.33
2024-02-18T07:05:12.988Z,6.07
2024-02-18T07:07:59.818Z,5.80
2024-02-18T07:10:46.567Z,6.47
2024-02-18T07:13:32.720Z,6.00
2024-02-18T07:16:20.685Z,5.33
2024-02-18T07:19:09.139Z,5.53
2024-02-18T07:21:55.632Z,5.93
2024-02-18T07:24:42.454Z,6.03
2024-02-18T07:27:28.774Z,5.00
2024-02-18T07:30:15.750Z,5.43
2024-02-18T07:33:03.102Z,5.00
2024-02-18T07:35:49.635Z,5.30
2024-02-18T07:38:37.225Z,5.03
2024-02-18T07:41:25.271Z,5.10
2024-02-18T07:44:11.812Z,5.13
2024-02-18T07:46:59.272Z,5.40
2024-02-18T07:49:47.485Z,4.37
2024-02-18T07:52:33.849Z,4.30
2024-02-18T07:55:21.084Z,4.17
2024-02-18T07:58:07.733Z,4.73
2024-02-18T08:00:54.129Z,4.40
2024-02-18T08:03:40.731Z,4.03
2024-02-18T08:06:30.588Z,4.30
2024-02-18T08:09:17.230Z,4.73
2024-02-18T08:12:04.017Z,5.00
2024-02-18T08:14:50.526Z,4.57
2024-02-18T08:17:36.755Z,5.13
2024-02-18T08:20:23.507Z,4.30
2024-02-18T08:23:10.157Z,4.30
2024-02-18T08:25:56.706Z,4.67
2024-02-18T08:28:43.273Z,5.60
2024-02-18T08:31:29.894Z,4.77
2024-02-18T08:34:16.155Z,5.10
2024-02-18T08:37:04.376Z,7.50
2024-02-18T08:39:50.839Z,4.63
2024-02-18T08:42:38.095Z,4.33
2024-02-18T08:45:24.310Z,4.53
2024-02-18T08:48:11.824Z,4.60
2024-02-18T08:50:58.198Z,5.60
2024-02-18T08:53:45.006Z,5.33
2024-02-18T08:56:31.586Z,5.00
2024-02-18T08:59:18.019Z,4.87
2024-02-18T09:02:07.070Z,5.03
2024-02-18T09:04:54.004Z,5.20
2024-02-18T09:07:40.583Z,5.13
2024-02-18T09:10:27.371Z,5.73
2024-02-18T09:13:15.375Z,4.80
2024-02-18T09:16:01.961Z,4.93
2024-02-18T09:22:14.779Z,6.10
2024-02-18T09:25:01.121Z,4.57
2024-02-18T09:27:48.019Z,4.50
2024-02-18T09:30:34.965Z,5.30
2024-02-18T09:33:21.725Z,5.40
2024-02-18T09:36:08.514Z,5.10
2024-02-18T09:38:57.587Z,5.10
2024-02-18T09:42:10.243Z,5.50
2024-02-18T09:44:57.807Z,5.20
2024-02-18T09:47:45.401Z,6.27
2024-02-18T09:50:35.757Z,6.13
2024-02-18T09:53:24.916Z,5.57
2024-02-18T09:56:11.844Z,5.27
2024-02-18T09:58:58.134Z,4.90
2024-02-18T10:01:47.120Z,5.40
2024-02-18T10:05:26.923Z,5.00
2024-02-18T10:08:13.669Z,4.97
2024-02-18T10:11:00.484Z,5.17
2024-02-18T10:13:48.125Z,7.27
2024-02-18T10:16:37.759Z,9.53
2024-02-18T10:19:38.082Z,9.90
2024-02-18T10:22:25.700Z,5.97
2024-02-18T10:25:12.106Z,6.07
2024-02-18T10:27:59.310Z,5.40
2024-02-18T10:30:46.167Z,5.63
2024-02-18T10:33:33.120Z,6.10
2024-02-18T10:36:20.826Z,6.57
2024-02-18T10:39:14.876Z,5.50
2024-02-18T10:42:07.666Z,6.27
2024-02-18T10:44:58.140Z,5.57
2024-02-18T10:47:56.274Z,4.97
2024-02-18T10:50:50.959Z,5.60
2024-02-18T10:53:56.117Z,6.17
2024-02-18T10:56:42.891Z,5.60
2024-02-18T10:59:57.653Z,5.50
2024-02-18T11:02:59.343Z,5.10
2024-02-18T11:05:47.384Z,4.57
2024-02-18T11:08:35.833Z,4.90
2024-02-18T11:11:23.489Z,5.53
2024-02-18T11:14:11.701Z,5.87
2024-02-18T11:16:59.999Z,5.20
2024-02-18T11:19:48.113Z,4.90
2024-02-18T11:22:34.693Z,6.83
2024-02-18T11:25:23.773Z,5.67
2024-02-18T11:28:10.888Z,6.43
2024-02-18T11:30:57.488Z,4.67
2024-02-18T11:33:44.230Z,5.30
2024-02-18T11:36:30.911Z,5.17
2024-02-18T11:39:17.257Z,5.40
2024-02-18T11:42:15.507Z,4.83
2024-02-18T11:45:13.573Z,4.30
2024-02-18T11:48:03.759Z,4.40
2024-02-18T11:50:50.124Z,4.60
2024-02-18T11:53:36.607Z,4.77
2024-02-18T11:56:23.054Z,4.53
2024-02-18T11:59:09.790Z,5.10
2024-02-18T12:01:56.378Z,4.47
2024-02-18T12:04:43.540Z,4.30
2024-02-18T12:07:30.129Z,5.27
2024-02-18T12:10:20.894Z,4.53
2024-02-18T12:13:07.474Z,3.90
2024-02-18T12:15:54.537Z,4.97
2024-02-18T12:18:41.323Z,4.47
2024-02-18T12:21:28.137Z,4.50
2024-02-18T12:24:15.097Z,4.10
2024-02-18T12:27:01.674Z,4.03
2024-02-18T12:29:50.523Z,4.30
2024-02-18T12:32:37.516Z,4.40
2024-02-18T12:35:24.667Z,3.60
2024-02-18T12:38:11.212Z,4.40
2024-02-18T12:40:57.696Z,4.07
2024-02-18T12:44:26.337Z,4.10
2024-02-18T12:46:58.991Z,4.23
2024-02-18T12:49:46.391Z,4.47
2024-02-18T12:52:33.306Z,4.40
2024-02-18T12:55:23.974Z,3.73
2024-02-18T12:58:10.682Z,3.40
2024-02-18T13:00:57.185Z,2.80
2024-02-18T13:03:49.397Z,3.20
2024-02-18T13:06:36.670Z,3.17
2024-02-18T13:09:27.181Z,3.23
2024-02-18T13:12:13.806Z,4.90
2024-02-18T13:15:00.336Z,10.40
2024-02-18T13:17:52.502Z,7.83
2024-02-18T13:20:39.159Z,3.33
2024-02-18T13:23:25.709Z,3.00
2024-02-18T13:26:11.986Z,2.77
2024-02-18T13:28:58.509Z,3.20
2024-02-18T13:31:45.497Z,4.00
2024-02-18T13:34:32.520Z,4.23
2024-02-18T13:37:19.045Z,4.10
2024-02-18T13:40:07.669Z,4.33
2024-02-18T13:42:54.105Z,6.87
2024-02-18T13:45:40.956Z,3.93
2024-02-18T13:48:27.810Z,3.50
2024-02-18T13:51:14.553Z,5.93
2024-02-18T13:54:01.867Z,4.40
2024-02-18T13:56:48.360Z,4.10
2024-02-18T13:59:35.756Z,5.40
2024-02-18T14:02:22.133Z,4.93
2024-02-18T14:05:10.897Z,4.53
2024-02-18T14:07:57.968Z,5.27
2024-02-18T14:10:44.222Z,5.40
2024-02-18T14:13:31.213Z,4.63
2024-02-18T14:16:24.452Z,3.93
2024-02-18T14:19:21.157Z,5.33
2024-02-18T14:22:30.563Z,4.00
2024-02-18T14:25:21.505Z,4.40
2024-02-18T14:28:11.212Z,4.70
2024-02-18T14:30:57.883Z,7.30
2024-02-18T14:33:44.272Z,4.80
2024-02-18T14:36:30.727Z,5.03
2024-02-18T14:39:17.241Z,4.93
2024-02-18T14:42:03.786Z,4.23
2024-02-18T14:44:51.068Z,4.17
2024-02-18T14:47:38.272Z,4.47
2024-02-18T14:50:27.304Z,4.50
2024-02-18T14:53:15.498Z,5.27
2024-02-18T14:56:02.019Z,3.87
2024-02-18T14:58:48.571Z,7.37
2024-02-18T15:01:35.334Z,6.47
2024-02-18T15:04:21.586Z,11.57
2024-02-18T15:07:09.831Z,8.17
2024-02-18T15:09:56.540Z,5.60
2024-02-18T15:12:43.107Z,7.70
2024-02-18T15:15:29.710Z,6.57
2024-02-18T15:18:18.531Z,8.37
2024-02-18T15:21:04.856Z,5.03
2024-02-18T15:23:51.085Z,5.23
2024-02-18T15:26:38.530Z,6.63
2024-02-18T15:29:31.596Z,7.10
2024-02-18T15:32:21.124Z,7.10
2024-02-18T15:35:08.441Z,7.30
2024-02-18T15:37:55.620Z,8.97
2024-02-18T15:40:42.102Z,6.33
2024-02-18T15:43:30.765Z,7.73
2024-02-18T15:49:55.825Z,6.33
2024-02-18T15:52:45.407Z,6.20
2024-02-18T15:55:42.310Z,5.53
2024-02-18T15:58:37.260Z,7.50
2024-02-18T16:01:23.794Z,6.10
2024-02-18T16:04:10.570Z,4.60
2024-02-18T16:06:57.124Z,6.97
2024-02-18T16:09:51.324Z,6.97
2024-02-18T16:12:37.697Z,5.13
2024-02-18T16:15:23.997Z,5.17
2024-02-18T16:18:10.563Z,5.90
2024-02-18T16:20:57.012Z,5.60
2024-02-18T16:23:45.880Z,5.20
2024-02-18T16:26:36.316Z,7.63
2024-02-18T16:29:24.651Z,6.90
2024-02-18T16:32:13.164Z,7.53
2024-02-18T16:34:59.837Z,7.53
2024-02-18T16:37:46.554Z,5.13
2024-02-18T16:40:33.689Z,7.27
2024-02-18T16:43:20.039Z,7.10
2024-02-18T16:46:07.653Z,9.50
2024-02-18T16:48:54.051Z,8.83
2024-02-18T16:51:45.274Z,8.53
2024-02-18T16:54:32.281Z,10.83
2024-02-18T17:00:06.538Z,6.70
2024-02-18T17:02:53.123Z,6.10
2024-02-18T17:05:39.464Z,6.70
2024-02-18T17:08:26.332Z,8.77
2024-02-18T17:11:15.368Z,5.97
2024-02-18T17:14:04.280Z,11.37
2024-02-18T17:16:50.849Z,12.70
2024-02-18T17:19:38.240Z,7.23
2024-02-18T17:22:24.636Z,6.60
2024-02-18T17:25:11.878Z,6.10
2024-02-18T17:27:59.442Z,6.80
2024-02-18T17:30:45.970Z,7.00
2024-02-18T17:33:34.883Z,6.13
2024-02-18T17:36:22.046Z,9.17
2024-02-18T17:39:09.572Z,6.87
2024-02-18T17:41:56.151Z,5.80
2024-02-18T17:44:42.756Z,5.90
2024-02-18T17:47:29.593Z,8.07
2024-02-18T17:50:16.137Z,9.57
2024-02-18T17:53:02.761Z,7.37
2024-02-18T17:55:49.300Z,6.97
2024-02-18T17:58:36.279Z,10.67
2024-02-18T18:01:23.343Z,8.50
2024-02-18T18:04:09.968Z,7.43
2024-02-18T18:06:56.649Z,9.67
2024-02-18T18:09:43.365Z,10.03
2024-02-18T18:12:29.822Z,9.10
2024-02-18T18:15:20.623Z,8.23
2024-02-18T18:18:07.748Z,7.67
2024-02-18T18:20:54.256Z,8.83
2024-02-18T18:23:41.138Z,8.73
2024-02-18T18:26:27.648Z,7.47
2024-02-18T18:29:13.908Z,8.10
2024-02-18T18:32:00.206Z,8.90
2024-02-18T18:34:46.723Z,7.77
2024-02-18T18:37:33.157Z,12.67
2024-02-18T18:40:20.251Z,8.13
2024-02-18T18:43:10.444Z,6.73
2024-02-18T18:45:56.611Z,3.60
2024-02-18T18:48:43.466Z,4.37
2024-02-18T18:51:30.332Z,3.40
2024-02-18T18:54:16.788Z,3.33
2024-02-18T18:57:03.269Z,3.83
2024-02-18T18:59:49.892Z,3.23
2024-02-18T19:02:37.224Z,3.73
2024-02-18T19:05:24.721Z,4.40
2024-02-18T19:08:11.559Z,5.10
2024-02-18T19:10:59.813Z,3.60
2024-02-18T19:13:47.829Z,3.17
2024-02-18T19:16:35.274Z,5.40
2024-02-18T19:19:24.196Z,3.63
2024-02-18T19:22:16.175Z,3.20
2024-02-18T19:25:02.729Z,3.43
2024-02-18T19:27:49.140Z,3.70
2024-02-18T19:30:35.695Z,4.23
2024-02-18T19:33:22.018Z,3.50
2024-02-18T19:36:08.707Z,3.70
2024-02-18T19:38:55.791Z,4.00
2024-02-18T19:41:43.539Z,3.30
2024-02-18T19:44:30.684Z,3.83
2024-02-18T19:47:18.221Z,3.43
2024-02-18T19:50:05.593Z,3.20
2024-02-18T19:52:51.759Z,4.87
2024-02-18T19:55:39.874Z,3.40
2024-02-18T19:58:26.626Z,3.40
2024-02-18T20:01:13.486Z,3.27
2024-02-18T20:04:00.409Z,3.27
2024-02-18T20:06:47.192Z,3.70
2024-02-18T20:09:34.112Z,2.60
2024-02-18T20:12:20.740Z,3.00
2024-02-18T20:15:07.596Z,2.97
2024-02-18T20:17:53.911Z,5.00
2024-02-18T20:20:40.535Z,3.80
2024-02-18T20:23:27.001Z,4.30
2024-02-18T20:26:20.249Z,6.33
2024-02-18T20:29:06.712Z,8.67
2024-02-18T20:31:53.259Z,5.87
2024-02-18T20:34:43.288Z,11.53
2024-02-18T20:37:31.013Z,8.10
2024-02-18T20:40:20.614Z,4.93
2024-02-18T20:43:07.030Z,2.97
2024-02-18T20:45:53.687Z,3.07
2024-02-18T20:48:40.322Z,3.50
2024-02-18T20:51:30.578Z,3.17
2024-02-18T20:54:17.613Z,3.63
2024-02-18T20:57:04.872Z,3.83
2024-02-18T20:59:51.191Z,4.50
2024-02-18T21:02:37.615Z,4.53
2024-02-18T21:05:23.868Z,4.40
2024-02-18T21:08:10.368Z,4.73
2024-02-18T21:10:57.255Z,6.23
2024-02-18T21:13:43.968Z,4.40
2024-02-18T21:16:30.401Z,1.90
2024-02-18T21:19:18.791Z,1.50
2024-02-18T21:22:05.372Z,3.63
2024-02-18T21:24:55.655Z,2.30
2024-02-18T21:27:42.134Z,2.23
2024-02-18T21:30:28.397Z,2.20
2024-02-18T21:33:19.677Z,1.70
2024-02-18T21:36:07.669Z,2.00
2024-02-18T21:38:54.683Z,1.83
2024-02-18T21:41:45.707Z,1.83
2024-02-18T21:44:32.626Z,1.50
2024-02-18T21:47:19.120Z,1.57
2024-02-18T21:50:05.826Z,1.70
2024-02-18T21:52:54.771Z,1.10
2024-02-18T21:55:41.190Z,1.40
2024-02-18T21:58:29.260Z,1.00
2024-02-18T22:01:15.831Z,1.40
2024-02-18T22:04:03.053Z,1.47
2024-02-18T22:07:04.167Z,1.60
2024-02-18T22:09:55.988Z,1.50
2024-02-18T22:12:42.490Z,1.93
2024-02-18T22:15:29.231Z,1.10
2024-02-18T22:18:16.599Z,1.93
2024-02-18T22:21:03.358Z,0.90
2024-02-18T22:23:49.875Z,0.80
2024-02-18T22:26:40.210Z,0.90
2024-02-18T22:29:26.689Z,0.63
2024-02-18T22:32:12.869Z,0.70
2024-02-18T22:34:59.481Z,0.60
2024-02-18T22:37:45.760Z,0.67
2024-02-18T22:40:32.344Z,0.90
2024-02-18T22:43:20.373Z,0.53
2024-02-18T22:46:06.758Z,1.00
2024-02-18T22:48:53.383Z,0.50
2024-02-18T22:51:41.409Z,0.60
2024-02-18T22:54:27.878Z,0.70
2024-02-18T22:57:14.702Z,0.70
2024-02-18T23:00:01.286Z,0.70
2024-02-18T23:02:48.148Z,0.47
2024-02-18T23:05:34.918Z,0.20
2024-02-18T23:08:21.397Z,0.40
2024-02-18T23:11:08.853Z,0.43
2024-02-18T23:13:55.339Z,0.40
2024-02-18T23:16:41.627Z,0.50
2024-02-18T23:19:28.344Z,0.30
2024-02-18T23:22:14.786Z,0.30
2024-02-18T23:25:01.553Z,0.30
2024-02-18T23:27:47.879Z,0.20
2024-02-18T23:30:34.139Z,0.33
2024-02-18T23:33:23.639Z,0.20
2024-02-18T23:36:10.272Z,0.30
2024-02-18T23:38:57.669Z,0.30
2024-02-18T23:41:43.929Z,0.10
2024-02-18T23:44:30.472Z,0.50
2024-02-18T23:47:16.696Z,0.40
2024-02-18T23:50:03.266Z,0.23
2024-02-18T23:52:49.756Z,0.23
2024-02-18T23:55:37.866Z,0.37
2024-02-18T23:58:24.165Z,0.30
